Idaho Cnty AP, Grangeville, I, ID

8:15 AM PDT on July 25, 2017 (GMT -0700)
Idaho Cnty AP, Grangeville, I

Weather History for KGIC - August, 2013

Change the Weather History Date:

Sunday, August 11, 2013

  Actual Average (KP69) Record (KP69)
Temperature  
Mean Temperature 70 °F -  
Max Temperature 79 °F 88 °F 100 °F (2004)
Min Temperature 61 °F 53 °F 48 °F (2007)
Cooling Degree Days 5    
Growing Degree Days 20 (Base 50)    
Moisture  
Dew Point 49 °F    
Average Humidity 47    
Maximum Humidity 65    
Minimum Humidity 32    
Precipitation  
Precipitation 0.00 in - - ()
Sea Level Pressure  
Sea Level Pressure 30.06 in    
Wind  
Wind Speed 4 mph (East)    
Max Wind Speed 17 mph    
Max Gust Speed 24 mph    
Visibility 10 miles    
Events      
Averages and records for this station are not official NWS values.
T = Trace of Precipitation, MM = Missing Value Source: NWS Daily Summary

Daily Weather History Graph

Daily Weather History Graph

Search for Another Location

Airport or City:

Trip Planner

Search our weather history database for the weather conditions in past years. The results will help you decide how hot, cold, wet, or windy it might be!

Date:

Astronomy

Aug. 11, 2013 Rise Set
Actual Time 5:39 AM PDT 7:58 PM PDT
Civil Twilight 5:06 AM PDT 8:31 PM PDT
Nautical Twilight 4:25 AM PDT 9:12 PM PDT
Astronomical Twilight 3:38 AM PDT 9:58 PM PDT
Moon 10:51 AM PDT (8/11) 9:56 PM PDT (8/11)
Length of Visible Light 15h 25m
Length of Day
14h 19m
Waxing Crescent, 23% of the Moon is Illuminated
Aug 11
Waxing Crescent
Aug 14
First Quarter
Aug 20
Full
Aug 28
Last Quarter
Sep 5
New

Hourly Weather History & Observations

Time (PDT) Temp. Dew Point Humidity Pressure Visibility Wind Dir Wind Speed Gust Speed Precip Events Conditions
12:15 AM 67.8 °F 48.2 °F 49% 30.04 in 10.0 mi SSW 3.5 mph - N/A   Clear
12:35 AM 65.1 °F 48.6 °F 55% 30.04 in 10.0 mi Calm Calm - N/A   Clear
12:55 AM 64.4 °F 48.9 °F 57% 30.04 in 10.0 mi Calm Calm - N/A   Clear
1:15 AM 63.1 °F 48.9 °F 60% 30.04 in 10.0 mi South 3.5 mph - N/A   Clear
1:35 AM 62.4 °F 49.3 °F 62% 30.04 in 10.0 mi South 5.8 mph - N/A   Clear
1:55 AM 62.1 °F 49.1 °F 62% 30.04 in 10.0 mi South 5.8 mph - N/A   Clear
2:15 AM 61.3 °F 49.1 °F 64% 30.04 in 10.0 mi SSE 5.8 mph - N/A   Clear
2:35 AM 61.2 °F 49.1 °F 65% 30.04 in 10.0 mi SE 4.6 mph - N/A   Clear
2:55 AM 62.6 °F 49.1 °F 61% 30.05 in 10.0 mi East 4.6 mph - N/A   Clear
3:15 AM 62.2 °F 48.9 °F 62% 30.05 in 10.0 mi East 4.6 mph - N/A   Clear
3:35 AM 64.4 °F 48.4 °F 56% 30.05 in 10.0 mi ENE 3.5 mph - N/A   Clear
3:55 AM 66.2 °F 47.3 °F 51% 30.06 in 10.0 mi NE 3.5 mph - N/A   Clear
4:15 AM 65.1 °F 46.6 °F 51% 30.06 in 10.0 mi Calm Calm - N/A   Clear
4:35 AM 63.9 °F 46.4 °F 53% 30.07 in 10.0 mi Calm Calm - N/A   Clear
4:55 AM 61.5 °F 46.9 °F 59% 30.08 in 10.0 mi SSE 5.8 mph - N/A   Clear
5:15 AM 61.2 °F 47.1 °F 60% 30.08 in 10.0 mi SSE 5.8 mph - N/A   Clear
5:35 AM 62.6 °F 46.9 °F 57% 30.09 in 10.0 mi SE 3.5 mph - N/A   Clear
5:55 AM 63.1 °F 46.9 °F 55% 30.09 in 10.0 mi Calm Calm - N/A   Clear
6:15 AM 64.0 °F 47.3 °F 54% 30.09 in 10.0 mi NNE 3.5 mph - N/A   Clear
6:35 AM 66.0 °F 47.3 °F 51% 30.10 in 10.0 mi North 3.5 mph - N/A   Clear
6:55 AM 64.9 °F 48.4 °F 55% 30.10 in 10.0 mi Calm Calm - N/A   Clear
7:15 AM 64.2 °F 48.7 °F 57% 30.10 in 10.0 mi Calm Calm - N/A   Clear
7:35 AM 65.3 °F 49.6 °F 57% 30.10 in 10.0 mi Calm Calm - N/A   Clear
7:55 AM 65.7 °F 49.6 °F 56% 30.10 in 10.0 mi NE 3.5 mph - N/A   Clear
8:15 AM 67.1 °F 49.6 °F 53% 30.10 in 10.0 mi East 5.8 mph - N/A   Clear
8:35 AM 67.5 °F 49.5 °F 52% 30.10 in 10.0 mi East 4.6 mph - N/A   Clear
8:55 AM 67.8 °F 49.5 °F 52% 30.08 in 10.0 mi NE 6.9 mph - N/A   Clear
9:15 AM 68.2 °F 49.6 °F 51% 30.10 in 10.0 mi East 3.5 mph - N/A   Clear
9:35 AM 70.2 °F 49.6 °F 48% 30.09 in 10.0 mi ENE 3.5 mph - N/A   Clear
9:55 AM 72.0 °F 49.5 °F 45% 30.08 in 10.0 mi NNE 4.6 mph - N/A   Clear
10:15 AM 72.1 °F 49.3 °F 44% 30.09 in 10.0 mi NNE 3.5 mph - N/A   Clear
10:35 AM 71.4 °F 49.3 °F 45% 30.08 in 10.0 mi Calm Calm - N/A   Clear
10:55 AM 72.0 °F 49.5 °F 45% 30.08 in 10.0 mi NNE 3.5 mph - N/A   Clear
11:15 AM 73.0 °F 49.5 °F 43% 30.07 in 10.0 mi NE 4.6 mph - N/A   Clear
11:35 AM 74.5 °F 49.6 °F 42% 30.07 in 10.0 mi ENE 5.8 mph - N/A   Clear
11:55 AM 74.7 °F 49.6 °F 41% 30.06 in 10.0 mi NNE 5.8 mph - N/A   Clear
12:15 PM 76.3 °F 49.6 °F 39% 30.06 in 10.0 mi NNE 4.6 mph - N/A   Clear
12:35 PM 76.5 °F 49.5 °F 39% 30.06 in 10.0 mi ENE 3.5 mph - N/A   Clear
12:55 PM 76.6 °F 48.7 °F 37% 30.05 in 10.0 mi Calm Calm - N/A   Clear
1:15 PM 75.9 °F 48.7 °F 38% 30.06 in 10.0 mi ENE 4.6 mph - N/A   Clear
1:35 PM 75.4 °F 48.9 °F 39% 30.06 in 10.0 mi ENE 3.5 mph - N/A   Clear
1:55 PM 75.9 °F 49.5 °F 39% 30.05 in 10.0 mi East 5.8 mph - N/A   Clear
2:15 PM 78.1 °F 48.6 °F 35% 30.05 in 10.0 mi ENE 3.5 mph - N/A   Clear
2:35 PM 77.4 °F 48.0 °F 35% 30.05 in 10.0 mi East 5.8 mph - N/A   Clear
2:55 PM 77.2 °F 48.2 °F 36% 30.05 in 10.0 mi ENE 4.6 mph - N/A   Clear
3:15 PM 78.1 °F 49.3 °F 36% 30.03 in 10.0 mi ENE 8.1 mph - N/A   Clear
3:35 PM 79.7 °F 48.7 °F 34% 30.02 in 10.0 mi East 8.1 mph - N/A   Clear
3:55 PM 79.7 °F 48.4 °F 33% 30.01 in 10.0 mi SE 5.8 mph - N/A   Clear
4:15 PM 79.0 °F 48.4 °F 34% 30.01 in 10.0 mi NE 3.5 mph - N/A   Clear
4:35 PM 78.8 °F 48.9 °F 35% 30.02 in 10.0 mi East 8.1 mph - N/A   Clear
4:55 PM 78.1 °F 49.5 °F 37% 30.03 in 10.0 mi ENE 3.5 mph - N/A   Clear
5:15 PM 76.5 °F 50.0 °F 39% 30.03 in 10.0 mi Calm Calm - N/A   Scattered Clouds
5:35 PM 75.4 °F 50.9 °F 42% 30.04 in 10.0 mi SSW 3.5 mph - N/A   Mostly Cloudy
5:55 PM 75.2 °F 51.4 °F 43% 30.04 in 10.0 mi Calm Calm - N/A   Scattered Clouds
6:15 PM 75.9 °F 50.2 °F 40% 30.04 in 10.0 mi Calm Calm - N/A   Clear
6:35 PM 76.1 °F 48.0 °F 37% 30.02 in 10.0 mi ENE 9.2 mph - N/A   Clear
6:55 PM 75.0 °F 49.3 °F 40% 30.04 in 10.0 mi East 13.8 mph 17.3 mph N/A   Clear
7:15 PM 75.4 °F 50.5 °F 42% 30.05 in 10.0 mi East 10.4 mph - N/A   Clear
7:35 PM 75.7 °F 46.2 °F 35% 30.04 in 10.0 mi East 13.8 mph 21.9 mph N/A   Scattered Clouds
7:55 PM 75.0 °F 43.0 °F 32% 30.06 in 10.0 mi ESE 9.2 mph - N/A   Scattered Clouds
8:15 PM 73.8 °F 43.2 °F 33% 30.06 in 10.0 mi SE 5.8 mph - N/A   Scattered Clouds
8:35 PM 72.1 °F 43.9 °F 36% 30.08 in 10.0 mi West 6.9 mph - N/A   Mostly Cloudy
8:55 PM 70.9 °F 46.4 °F 42% 30.09 in 10.0 mi WNW 17.3 mph 24.2 mph N/A   Overcast